Deerfield, South Dakota
Current Conditions -  °F | °C
As of 6:53 AM on Thursday 23 Oct 2014 (Local Time) from KCUT Reporting Station
Clear Clear  
Wind Chill: 31°   Ceiling: Unl
Heat Index: 38°   Visibility: 10mi
Dew Point: 18°   Wind: 9mph
Humidity: 44%   Direction: 270°W
Pressure: 30.04"   Gusts: NA
Location:  43.9317°N, 103.745°W
Report Text: KCUT 231253Z AUTO 27008KT 10SM CLR 03/M08 A3004 RMK AO2 SLP167 T00331078
Loading
Personal Weather Stations






























Interactive Weather Map
Tropical Storm Tracking
New forecast layout! Learn more

10-Day Weather Forecast

Advertisements
Track Severe Weather on mobile